Latest Weather Observations for Laverton

IDV60801

Issued at 8:42 am EST Thursday 1 October 2020 (issued every 10 minutes, with the page automatically refreshed every 10 minutes)

About weather observations | Map of weather stations | Latest weather observations for VIC | Other Formats
Station Details ID: 087031 Name: LAVERTON RAAF Lat: -37.86 Lon: 144.76 Height: 20.1 m
Data from the previous 72 hours. | See also: Recent months at Laverton
Date/Time
EST
Temp
°C
App
Temp
°C
Dew
Point
°C
Rel
Hum
%
Delta-T
°C
Wind Press
QNH
hPa
Press
MSL
hPa
Rain since
9am
mm
Dir  Spd
km/h
Gust
km/h
Spd
kts
Gust
kts
01/08:30am 12.2 7.7 6.9 70 2.5 WNW 20 28 11 15 1016.6 1016.6 1.0
01/08:00am 11.4 7.1 6.9 74 2.1 WNW 19 24 10 13 1016.2 1016.2 1.0
01/07:30am 9.9 6.4 7.0 82 1.4 NW 15 19 8 10 1015.8 1015.8 1.0
01/07:00am 8.2 4.9 6.3 88 0.9 NW 13 19 7 10 1015.5 1015.5 1.0
01/06:30am 6.5 3.0 5.3 92 0.5 NW 13 17 7 9 1015.0 1015.0 1.0
01/06:00am 6.1 2.8 4.6 90 0.6 NW 11 13 6 7 1014.6 1014.6 1.0
01/05:30am 6.3 3.4 4.9 91 0.6 NNW 9 11 5 6 1014.1 1014.1 1.0
01/05:00am 6.7 3.6 5.5 92 0.5 NNW 11 15 6 8 1013.5 1013.5 1.0
01/04:30am 7.2 4.5 5.8 91 0.6 NNW 9 11 5 6 1013.2 1013.2 1.0
01/04:00am 7.1 4.0 5.7 91 0.6 NW 11 13 6 7 1013.0 1013.0 1.0
01/03:30am 7.3 4.3 5.9 91 0.6 NW 11 13 6 7 1012.8 1012.8 1.0
01/03:00am 7.9 4.6 6.2 89 0.8 NW 13 17 7 9 1012.5 1012.5 1.0
01/02:30am 8.2 5.2 5.8 85 1.1 NW 11 13 6 7 1012.4 1012.4 1.0
01/02:00am 8.8 5.8 6.1 83 1.2 WNW 11 17 6 9 1012.4 1012.4 1.0
01/01:30am 9.1 5.8 6.5 84 1.2 NW 13 15 7 8 1012.1 1012.1 1.0
01/01:00am 10.1 6.2 7.0 81 1.5 WNW 17 24 9 13 1012.0 1012.0 1.0
01/12:30am 9.9 6.4 7.2 83 1.3 WNW 15 20 8 11 1011.8 1011.8 1.0
01/12:00am 10.3 6.9 7.5 83 1.3 WNW 15 20 8 11 1011.5 1011.6 1.0
 
Date/Time
EST
Temp
°C
App
Temp
°C
Dew
Point
°C
Rel
Hum
%
Delta-T
°C
Wind Press
QNH
hPa
Press
MSL
hPa
Rain since
9am
mm
Dir  Spd
km/h
Gust
km/h
Spd
kts
Gust
kts
30/11:30pm 10.5 7.4 7.4 81 1.5 WNW 13 17 7 9 1011.3 1011.4 1.0
30/11:00pm 11.1 8.1 7.6 79 1.7 WNW 13 20 7 11 1011.1 1011.2 1.0
30/10:30pm 11.4 7.7 7.9 79 1.7 W 17 24 9 13 1010.7 1010.8 1.0
30/10:00pm 11.5 6.5 8.2 80 1.6 W 24 35 13 19 1010.5 1010.6 1.0
30/09:30pm 12.2 5.3 9.0 81 1.6 W 35 59 19 32 1010.2 1010.3 1.0
30/09:21pm 13.2 8.3 9.8 80 1.7 W 26 48 14 26 1010.2 1010.3 1.0
30/09:00pm 12.9 9.2 10.3 84 1.3 NW 20 26 11 14 1009.4 1009.5 0.6
30/08:30pm 13.2 9.9 10.9 86 1.2 NW 19 28 10 15 1009.0 1009.1 0.6
30/08:00pm 14.1 8.8 9.7 75 2.3 W 28 43 15 23 1009.2 1009.3 0.2
30/07:53pm 14.7 9.5 10.3 75 2.3 W 28 41 15 22 1009.0 1009.1 0.2
30/07:30pm 15.3 12.9 11.5 78 2.0 W 15 22 8 12 1008.3 1008.4 0.2
30/07:00pm 15.3 12.2 11.7 79 1.9 WNW 19 24 10 13 1007.7 1007.7 0.2
30/06:30pm 15.2 12.8 11.4 78 2.0 NW 15 19 8 10 1007.0 1007.0 0.0
30/06:00pm 15.5 13.0 10.9 74 2.5 NNW 15 20 8 11 1006.7 1006.7 0.0
30/05:30pm 16.7 13.1 9.9 64 3.6 NNW 19 28 10 15 1006.3 1006.3 0.0
30/05:00pm 17.0 12.9 10.1 64 3.7 NNW 22 30 12 16 1006.1 1006.1 0.0
30/04:30pm 17.3 13.9 10.4 64 3.7 N 19 30 10 16 1006.0 1006.0 0.0
30/04:00pm 17.4 12.8 9.8 61 4.0 NNW 24 33 13 18 1006.3 1006.3 0.0
30/03:30pm 17.7 12.8 9.8 60 4.2 NNW 26 43 14 23 1006.6 1006.6 0.0
30/03:00pm 18.2 12.8 9.5 57 4.6 NNW 28 41 15 22 1006.6 1006.6 0.0
30/02:33pm 18.2 12.0 9.5 57 4.6 NNW 32 50 17 27 1006.9 1006.9 0.0
30/02:30pm 18.3 12.1 9.9 58 4.5 NNW 33 48 18 26 1007.0 1007.0 0.0
30/02:00pm 18.4 12.8 10.0 58 4.5 N 30 43 16 23 1007.1 1007.1 0.0
30/01:42pm 18.0 11.9 9.6 58 4.4 NNW 32 57 17 31 1007.4 1007.4 0.0
30/01:30pm 17.7 11.9 9.3 58 4.4 NNW 30 46 16 25 1007.7 1007.7 0.0
30/01:13pm 17.6 11.4 9.2 58 4.4 NNW 32 50 17 27 1007.7 1007.7 0.0
30/01:00pm 17.9 13.1 10.3 61 4.1 NNW 26 41 14 22 1008.0 1008.0 0.0
30/12:30pm 16.7 12.2 10.1 65 3.5 N 24 41 13 22 1008.7 1008.8 0.0
30/12:00pm 16.3 12.1 9.9 66 3.4 N 22 33 12 18 1009.1 1009.2 0.0
30/11:30am 16.5 11.9 9.7 64 3.6 N 24 39 13 21 1009.5 1009.6 0.0
30/11:00am 17.5 12.9 10.9 65 3.6 N 26 39 14 21 1010.2 1010.3 0.0
30/10:54am 17.5 12.2 11.1 66 3.5 N 30 48 16 26 1010.2 1010.3 0.0
30/10:30am 15.8 10.6 10.1 69 3.0 N 28 39 15 21 1010.7 1010.8 0.0
30/10:00am 15.8 10.6 10.3 70 2.9 N 28 43 15 23 1011.2 1011.3 0.0
30/09:44am 15.6 10.4 10.4 71 2.7 N 28 46 15 25 1011.2 1011.3 0.0
30/09:30am 15.4 10.7 10.8 74 2.4 N 26 39 14 21 1011.3 1011.4 0.0
30/09:00am 14.0 10.7 11.0 82 1.6 N 19 30 10 16 1011.7 1011.7 1.6
30/08:30am 13.0 10.1 10.9 87 1.1 NNE 17 24 9 13 1012.2 1012.2 1.6
30/08:00am 12.5 9.9 10.6 88 1.0 NNE 15 20 8 11 1012.6 1012.6 1.6
30/07:30am 12.3 11.2 10.5 89 0.9 N 7 9 4 5 1012.9 1012.9 1.4
30/07:00am 12.5 10.5 10.2 86 1.2 N 11 15 6 8 1013.0 1013.0 1.2
30/06:30am 12.4 10.0 10.0 85 1.2 NNE 13 15 7 8 1012.8 1012.8 1.2
30/06:00am 12.1 10.4 10.0 87 1.1 NNE 9 13 5 7 1012.4 1012.4 1.2
30/05:30am 11.9 10.4 10.6 92 0.7 NE 9 13 5 7 1012.8 1012.8 1.2
30/05:00am 12.1 10.7 9.7 85 1.2 N 7 9 4 5 1012.7 1012.7 1.0
30/04:34am 12.6 9.6 9.2 80 1.7 NNW 15 22 8 12 1012.8 1012.8 0.6
30/04:30am 12.9 10.3 9.2 78 1.9 NNW 13 22 7 12 1012.8 1012.8 0.6
30/04:20am 13.0 9.9 8.7 75 2.2 NNW 15 22 8 12 1012.9 1012.9 0.4
30/04:00am 15.7 11.1 6.7 55 4.4 N 20 28 11 15 1012.6 1012.6 0.0
30/03:30am 15.4 11.5 6.9 57 4.2 N 17 26 9 14 1012.4 1012.4 0.0
30/03:00am 14.9 11.9 7.5 61 3.7 NNE 13 19 7 10 1012.8 1012.8 0.0
30/02:30am 15.2 12.9 7.3 59 3.9 N 9 11 5 6 1013.2 1013.2 0.0
30/02:00am 15.2 13.2 7.3 59 3.9 N 7 11 4 6 1013.7 1013.7 0.0
30/01:30am 15.6 12.5 7.4 58 4.1 NNE 13 17 7 9 1014.1 1014.1 0.0
30/01:00am 15.7 11.5 7.5 58 4.1 NNE 19 41 10 22 1014.3 1014.3 0.0
30/12:30am 15.7 12.3 7.5 58 4.1 N 15 22 8 12 1014.8 1014.8 0.0
30/12:00am 15.6 11.5 7.9 60 3.9 NNE 19 28 10 15 1015.2 1015.2 0.0
 
Date/Time
EST
Temp
°C
App
Temp
°C
Dew
Point
°C
Rel
Hum
%
Delta-T
°C
Wind Press
QNH
hPa
Press
MSL
hPa
Rain since
9am
mm
Dir  Spd
km/h
Gust
km/h
Spd
kts
Gust
kts
29/11:30pm 15.8 10.8 8.1 60 3.9 NNE 24 33 13 18 1015.4 1015.4 0.0
29/11:00pm 15.1 11.8 8.1 63 3.5 NNE 15 24 8 13 1015.9 1015.9 0.0
29/10:30pm 14.9 12.6 7.5 61 3.7 N 9 13 5 7 1016.0 1016.0 0.0
29/10:00pm 15.0 11.9 7.3 60 3.8 NNE 13 19 7 10 1016.1 1016.1 0.0
29/09:30pm 14.5 11.8 7.5 63 3.5 NE 11 15 6 8 1016.4 1016.4 0.0
29/09:00pm 14.8 12.1 7.4 61 3.6 NNE 11 15 6 8 1016.8 1016.8 0.0
29/08:30pm 15.2 12.1 7.3 59 3.9 NNE 13 17 7 9 1016.9 1016.9 0.0
29/08:00pm 15.6 12.8 6.9 56 4.3 NNE 11 17 6 9 1017.1 1017.1 0.0
29/07:30pm 16.3 13.1 7.0 54 4.6 NNE 13 19 7 10 1017.2 1017.2 0.0
29/07:00pm 16.4 13.2 6.8 53 4.7 NNE 13 19 7 10 1017.2 1017.2 0.0
29/06:30pm 17.1 13.5 6.6 50 5.2 NNE 15 22 8 12 1017.4 1017.4 0.0
29/06:00pm 17.3 13.3 6.5 49 5.3 N 17 24 9 13 1017.4 1017.4 0.0
29/05:30pm 17.8 13.1 6.0 46 5.8 NNE 20 33 11 18 1017.2 1017.2 0.0
29/05:00pm 18.0 13.3 6.2 46 5.8 NNE 20 35 11 19 1017.2 1017.2 0.0
29/04:30pm 18.1 12.6 6.0 45 5.9 NNE 24 35 13 19 1017.0 1017.0 0.0
29/04:00pm 18.3 12.2 6.5 46 5.8 NNE 28 39 15 21 1017.0 1017.0 0.0
29/03:30pm 18.9 13.1 6.4 44 6.2 NNE 26 39 14 21 1017.2 1017.2 0.0
29/03:00pm 19.3 13.2 6.4 43 6.4 NNE 28 46 15 25 1017.5 1017.5 0.0
29/02:30pm 19.8 13.6 6.2 41 6.8 NNE 28 43 15 23 1017.8 1017.8 0.0
29/02:00pm 19.2 13.0 6.0 42 6.5 NNE 28 39 15 21 1018.6 1018.6 0.0
29/01:30pm 19.1 12.8 5.9 42 6.5 NNE 28 39 15 21 1019.4 1019.4 0.0
29/01:00pm 19.2 13.6 7.3 46 6.0 NNE 26 37 14 20 1020.0 1020.0 0.0
29/12:30pm 18.8 14.0 7.3 47 5.8 NNE 22 33 12 18 1020.7 1020.7 0.0
29/12:00pm 17.5 12.1 6.4 48 5.5 NNE 24 33 13 18 1021.2 1021.2 0.0
29/11:30am 17.4 12.3 6.0 47 5.6 NNE 22 33 12 18 1021.7 1021.7 0.0
29/11:00am 17.4 12.1 6.9 50 5.2 NNE 24 35 13 19 1022.1 1022.1 0.0
29/10:30am 15.7 12.8 8.0 60 3.9 NE 13 17 7 9 1022.7 1022.7 0.0
29/10:00am 14.7 11.3 7.5 62 3.5 NE 15 24 8 13 1022.8 1022.8 0.0
29/09:30am 13.3 10.5 6.9 65 3.1 ENE 11 17 6 9 1023.3 1023.3 0.0
29/09:00am 11.5 8.2 6.6 72 2.3 ENE 13 19 7 10 1023.8 1023.8 0.0
29/08:30am 9.9 7.4 6.4 79 1.6 NNE 9 13 5 7 1024.7 1024.7 0.0
29/08:00am 7.7 5.6 6.5 92 0.5 NNE 7 9 4 5 1025.4 1025.4 0.0
29/07:30am 5.7 3.6 5.6 99 0.0 N 6 9 3 5 1025.1 1025.1 0.0
29/07:00am 4.1 1.6 4.0 99 0.0 NW 6 7 3 4 1025.3 1025.3 0.0
29/06:30am 2.8 -0.1 2.7 99 0.0 NW 7 9 4 5 1025.2 1025.2 0.0
29/06:00am 2.2 -0.6 2.1 99 0.0 NW 6 7 3 4 1024.5 1024.5 0.0
29/05:30am 2.5 -0.4 2.4 99 0.0 NW 7 9 4 5 1024.3 1024.3 0.0
29/05:00am 1.8 -1.6 1.7 99 0.0 NW 9 11 5 6 1024.1 1024.1 0.0
29/04:30am 2.0 -0.8 1.9 99 0.0 NW 6 9 3 5 1023.7 1023.7 0.0
29/04:00am 1.9 -2.3 1.8 99 0.0 NW 13 13 7 7 1024.1 1024.1 0.0
29/03:30am 2.0 -2.2 1.9 99 0.0 NW 13 15 7 8 1024.3 1024.3 0.0
29/03:00am 2.9 -0.3 2.8 99 0.0 ENE 9 13 5 7 1024.2 1024.2 0.0
29/02:30am 2.8 -0.9 2.4 97 0.2 ENE 11 13 6 7 1024.6 1024.6 0.0
29/02:00am 3.8 0.6 3.1 95 0.3 ENE 9 9 5 5 1024.9 1024.9 0.0
29/01:30am 4.4 1.8 3.4 93 0.4 ENE 6 7 3 4 1025.5 1025.5 0.0
29/01:00am 5.1 2.5 4.1 93 0.4 ENE 7 9 4 5 1026.3 1026.3 0.0
29/12:30am 5.9 4.8 4.9 93 0.4 CALM 0 0 0 0 1026.4 1026.4 0.0
29/12:00am 6.2 5.0 4.4 88 0.8 CALM 0 0 0 0 1026.5 1026.5 0.0
 
Date/Time
EST
Temp
°C
App
Temp
°C
Dew
Point
°C
Rel
Hum
%
Delta-T
°C
Wind Press
QNH
hPa
Press
MSL
hPa
Rain since
9am
mm
Dir  Spd
km/h
Gust
km/h
Spd
kts
Gust
kts
28/11:30pm 7.0 4.5 4.8 86 1.0 E 7 11 4 6 1026.4 1026.4 0.0
28/11:00pm 7.6 4.8 5.1 84 1.1 E 9 15 5 8 1026.5 1026.5 0.0
28/10:30pm 7.3 4.5 5.0 85 1.0 E 9 13 5 7 1026.7 1026.7 0.0
28/10:00pm 7.9 5.5 5.2 83 1.2 E 7 9 4 5 1026.8 1026.8 0.0
28/09:30pm 8.6 5.9 5.4 80 1.4 ESE 9 13 5 7 1026.9 1026.9 0.0
28/09:00pm 9.1 6.0 5.5 78 1.6 SE 11 19 6 10 1027.3 1027.3 0.0
28/08:30pm 9.4 6.0 5.8 78 1.6 SE 13 19 7 10 1027.0 1027.0 0.0
28/08:00pm 9.3 6.6 5.7 78 1.6 SSE 9 13 5 7 1026.8 1026.8 0.0
28/07:30pm 9.4 6.3 5.4 76 1.8 SSE 11 17 6 9 1027.0 1027.0 0.0
28/07:00pm 9.8 6.3 5.4 74 2.0 SSE 13 17 7 9 1026.9 1026.9 0.0
28/06:30pm 10.0 6.4 5.2 72 2.2 SSE 13 20 7 11 1026.7 1026.7 0.0
28/06:00pm 10.7 6.9 5.7 71 2.3 SSE 15 20 8 11 1026.7 1026.7 0.0
28/05:30pm 11.4 7.5 5.3 66 2.8 SSE 15 20 8 11 1026.6 1026.6 0.0
28/05:00pm 11.9 8.0 5.3 64 3.0 SSE 15 22 8 12 1026.2 1026.2 0.0
28/04:30pm 12.4 8.4 5.1 61 3.4 SSE 15 20 8 11 1026.5 1026.5 0.0
28/04:00pm 13.1 9.8 4.8 57 3.8 SE 11 15 6 8 1026.6 1026.6 0.0
28/03:30pm 13.1 9.9 5.0 58 3.8 SSE 11 19 6 10 1026.5 1026.5 0.0
28/03:00pm 13.1 9.8 4.3 55 4.0 SSE 11 17 6 9 1026.9 1026.9 0.0
28/02:30pm 12.6 8.9 4.3 57 3.8 SSE 13 20 7 11 1027.1 1027.1 0.0
28/02:00pm 12.6 8.6 4.8 59 3.6 SE 15 24 8 13 1027.4 1027.4 0.0
28/01:30pm 12.0 7.5 4.2 59 3.5 SE 17 28 9 15 1027.7 1027.7 0.0
28/01:00pm 12.2 8.0 5.6 64 3.1 SE 17 20 9 11 1027.9 1027.9 0.0
28/12:30pm 12.3 8.7 5.2 62 3.3 SE 13 20 7 11 1028.4 1028.4 0.0
28/12:00pm 12.2 8.5 4.2 58 3.6 S 13 20 7 11 1028.7 1028.7 0.0
28/11:30am 12.0 8.7 4.7 61 3.3 ESE 11 15 6 8 1029.0 1029.0 0.0
28/11:00am 11.4 8.5 4.4 62 3.1 SE 9 15 5 8 1029.3 1029.3 0.0
28/10:30am 11.3 8.3 4.1 61 3.2 SSE 9 17 5 9 1029.6 1029.6 0.0
28/10:00am 11.3 9.6 5.8 69 2.5 SW 4 13 2 7 1029.9 1029.9 0.0
28/09:30am 9.8 7.0 5.0 72 2.2 WNW 9 11 5 6 1029.8 1029.8 0.0
28/09:00am 8.8 5.9 4.6 75 1.8 NW 9 11 5 6 1029.8 1029.8 0.0

Other formats

Comma delimited format used in spreadsheet applications
http://www.bom.gov.au/fwo/IDV60801/IDV60801.94865.axf

JavaScript Object Notation format (JSON) in row-major order
http://www.bom.gov.au/fwo/IDV60801/IDV60801.94865.json

Data quality

Most of these data are generated automatically and are frequently updated. Quality checks on data are not normally performed. It is possible for incorrect values to appear. Refer to information at About Latest Weather Observations and please check the disclaimer before using these data.